< Typhoon 195212 1952 Season Typhoon 195214 >
Typhoon 195213 (OLIVE)
General InformationTrack Information on Google Maps || Disaster Info.ResourceGoogle EarthGE AnimationAtom FeedGeoJSON
Detalied Best Track (Time Zone = UTC)
Year Month Day Hour Lat. Long. Pressure (hPa) Wind (kt) Class Image Chart
1952 9 15 00 16.0 167.0 970 0 9 -- Chart
1952 9 15 06 17.0 167.0 960 0 9 -- Chart
1952 9 15 12 18.0 168.5 950 0 9 -- Chart
1952 9 15 18 19.2 168.0 940 0 9 -- Chart
1952 9 16 00 19.9 166.5 940 0 9 -- Chart
1952 9 16 06 20.4 165.3 940 0 9 -- Chart
1952 9 16 12 21.0 164.0 940 0 9 -- Chart
1952 9 16 18 21.5 162.7 940 0 9 -- Chart
1952 9 17 00 22.1 161.4 940 0 9 -- Chart
1952 9 17 06 22.7 160.0 940 0 9 -- Chart
1952 9 17 12 23.6 158.7 940 0 9 -- Chart
1952 9 17 18 24.7 157.6 940 0 9 -- Chart
1952 9 18 00 25.9 156.5 940 0 9 -- Chart
1952 9 18 06 27.5 155.7 940 0 9 -- Chart
1952 9 18 12 29.2 155.5 940 0 9 -- Chart
1952 9 18 18 30.8 156.0 940 0 9 -- Chart
1952 9 19 00 32.4 156.8 950 0 9 -- Chart
1952 9 19 06 34.4 157.4 950 0 9 -- Chart
1952 9 19 12 37.0 161.5 950 0 9 -- Chart
1952 9 19 18 39.0 165.0 960 0 9 -- Chart
1952 9 20 00 41.0 169.0 970 0 9 -- Chart
1952 9 20 06 43.0 172.0 980 0 9 -- Chart
1952 9 20 12 45.0 175.0 980 0 9 -- Chart
1952 9 20 18 47.2 177.7 980 0 9 -- Chart
1952 9 21 00 50.0 178.5 985 0 6 -- Chart
1952 9 21 06 51.0 182.3 985 0 6 -- Chart
Japan Meteorological Agency Best Track Data | Correction Date : 1989-06-01
< Typhoon 195212 1952 Season Typhoon 195214 >

Help